Time;durP1;ratioP1;P1;durP2;ratioP2;P2;SDS_P1;SDS_P2;PMS_P1;PMS_P2;Temp;Humidity;BMP_temperature;BMP_pressure;BME280_temperature;BME280_humidity;BME280_pressure;Samples;Min_cycle;Max_cycle;Signal;HPM_P1;HPM_P2
2022/09/11 00:01:26;;;;;;;6.00;5.40;;;10.50;99.90;;;;;;5081959;28;20078;-64
2022/09/11 00:03:56;;;;;;;7.03;5.35;;;10.60;99.90;;;;;;5080628;28;20110;-63
2022/09/11 00:06:24;;;;;;;7.40;5.40;;;10.50;99.90;;;;;;5085046;28;20467;-65
2022/09/11 00:08:59;;;;;;;9.30;5.18;;;10.50;99.90;;;;;;5081669;28;20040;-65
2022/09/11 00:11:30;;;;;;;8.23;6.28;;;10.50;99.90;;;;;;5082222;28;20078;-63
2022/09/11 00:13:57;;;;;;;9.45;5.28;;;10.50;99.90;;;;;;5082613;28;20481;-65
2022/09/11 00:16:30;;;;;;;6.72;4.93;;;10.50;99.90;;;;;;5093116;28;20529;-64
2022/09/11 00:18:59;;;;;;;7.60;5.55;;;10.50;99.90;;;;;;5083779;28;20154;-63
2022/09/11 00:21:27;;;;;;;5.80;5.20;;;10.50;99.90;;;;;;5080572;28;20051;-63
2022/09/11 00:23:54;;;;;;;8.57;5.95;;;10.50;99.90;;;;;;5065972;28;20072;-68
2022/09/11 00:26:23;;;;;;;7.00;4.95;;;10.50;99.90;;;;;;5081178;28;20048;-67
2022/09/11 00:28:51;;;;;;;8.38;6.38;;;10.50;99.90;;;;;;5064295;28;20066;-63
2022/09/11 00:31:22;;;;;;;8.25;6.38;;;10.50;99.90;;;;;;5077059;28;20052;-63
2022/09/11 00:33:50;;;;;;;12.00;5.45;;;10.50;99.90;;;;;;5081281;28;20093;-65
2022/09/11 00:36:20;;;;;;;5.07;4.57;;;10.50;99.90;;;;;;5082854;28;20044;-64
2022/09/11 00:38:48;;;;;;;6.97;4.90;;;10.50;99.90;;;;;;5076987;28;20051;-63
2022/09/11 00:41:24;;;;;;;5.40;4.85;;;10.50;99.90;;;;;;5081886;28;20044;-68
2022/09/11 00:44:01;;;;;;;7.57;6.13;;;10.50;99.90;;;;;;5066208;28;20044;-66
2022/09/11 00:46:33;;;;;;;8.30;4.95;;;10.50;99.90;;;;;;5065902;28;20040;-63
2022/09/11 00:49:06;;;;;;;6.43;5.70;;;10.60;99.90;;;;;;5082958;28;20464;-64
2022/09/11 00:51:36;;;;;;;8.05;5.90;;;10.60;99.90;;;;;;5083948;28;20046;-64
2022/09/11 00:54:04;;;;;;;6.70;5.65;;;10.60;99.90;;;;;;5084178;28;20071;-65
2022/09/11 00:56:36;;;;;;;5.72;5.15;;;10.60;99.90;;;;;;5087487;28;20135;-63
2022/09/11 00:59:04;;;;;;;5.93;4.75;;;10.60;99.90;;;;;;5087625;28;20390;-67
2022/09/11 01:01:32;;;;;;;6.55;5.30;;;10.60;99.90;;;;;;5092326;28;20058;-64
2022/09/11 01:04:02;;;;;;;6.45;5.05;;;10.60;99.90;;;;;;5087353;28;20131;-63
2022/09/11 01:06:31;;;;;;;8.07;5.32;;;10.70;99.90;;;;;;5087416;28;20056;-62
2022/09/11 01:09:00;;;;;;;7.32;6.63;;;10.70;99.90;;;;;;5085270;28;20309;-66
2022/09/11 01:11:46;;;;;;;6.72;6.03;;;10.80;99.90;;;;;;5079278;28;20167;-64
2022/09/11 01:14:48;;;;;;;7.40;5.28;;;10.80;99.90;;;;;;5083660;28;20036;-68
2022/09/11 01:17:24;;;;;;;7.13;6.40;;;10.80;99.90;;;;;;5083193;28;20515;-66
2022/09/11 01:20:15;;;;;;;9.55;5.68;;;10.80;99.90;;;;;;5087473;28;20127;-64
2022/09/11 01:23:19;;;;;;;8.57;6.75;;;10.80;99.90;;;;;;5089939;28;20040;-63
2022/09/11 01:26:14;;;;;;;8.20;5.70;;;10.80;99.90;;;;;;5079816;28;20040;-66
2022/09/11 01:28:49;;;;;;;6.75;5.65;;;10.80;99.90;;;;;;5060443;28;20131;-64
2022/09/11 01:31:20;;;;;;;9.10;6.78;;;10.80;99.90;;;;;;5087122;28;20075;-66
2022/09/11 01:34:04;;;;;;;8.20;5.43;;;10.80;99.90;;;;;;5066660;28;20044;-64
2022/09/11 01:36:37;;;;;;;13.38;4.85;;;10.80;99.90;;;;;;5086501;28;20390;-65
2022/09/11 01:39:04;;;;;;;8.57;5.30;;;10.70;99.90;;;;;;5080036;28;20143;-66
2022/09/11 01:41:44;;;;;;;6.68;4.85;;;10.80;99.90;;;;;;5086770;28;20035;-66
2022/09/11 01:44:21;;;;;;;7.63;4.85;;;10.70;99.90;;;;;;5092098;28;20147;-63
2022/09/11 01:46:52;;;;;;;6.82;4.88;;;10.70;99.90;;;;;;5069798;28;20508;-64
2022/09/11 01:49:34;;;;;;;5.97;5.10;;;10.70;99.90;;;;;;5065770;28;20067;-66
2022/09/11 01:52:09;;;;;;;4.80;3.58;;;10.60;99.90;;;;;;5074403;28;20132;-63
2022/09/11 01:54:43;;;;;;;10.77;5.15;;;10.60;99.90;;;;;;5084508;28;20093;-65
2022/09/11 01:57:24;;;;;;;8.07;5.18;;;10.50;99.90;;;;;;5081534;28;20055;-65
2022/09/11 01:59:57;;;;;;;5.38;4.43;;;10.50;99.90;;;;;;5084979;28;20044;-63
2022/09/11 02:02:32;;;;;;;9.27;4.72;;;10.50;99.90;;;;;;5091755;28;20047;-64
2022/09/11 02:05:15;;;;;;;6.55;4.85;;;10.50;99.90;;;;;;5064224;28;20595;-63
2022/09/11 02:07:47;;;;;;;6.90;4.30;;;10.50;99.90;;;;;;5066131;28;20039;-63
2022/09/11 02:10:20;;;;;;;10.60;5.03;;;10.40;99.90;;;;;;5071441;28;20173;-63
2022/09/11 02:13:12;;;;;;;5.70;5.05;;;10.50;99.90;;;;;;5084519;28;20140;-66
2022/09/11 02:15:53;;;;;;;5.90;5.32;;;10.50;99.90;;;;;;5064781;28;20125;-65
2022/09/11 02:18:42;;;;;;;6.18;4.63;;;10.50;99.90;;;;;;5083092;28;20081;-65
2022/09/11 02:21:09;;;;;;;6.57;5.07;;;10.50;99.90;;;;;;5086115;28;20114;-65
2022/09/11 02:23:38;;;;;;;4.70;4.10;;;10.50;99.90;;;;;;5081876;28;20040;-63
2022/09/11 02:26:08;;;;;;;5.30;4.43;;;10.50;99.90;;;;;;5086490;28;20056;-64
2022/09/11 02:28:36;;;;;;;9.18;5.00;;;10.50;99.90;;;;;;5066048;28;20091;-63
2022/09/11 02:31:03;;;;;;;4.57;4.07;;;10.50;99.90;;;;;;5069420;28;20321;-63
2022/09/11 02:33:34;;;;;;;16.40;5.38;;;10.50;99.90;;;;;;5068906;28;20040;-65
2022/09/11 02:36:30;;;;;;;11.48;5.32;;;10.40;99.90;;;;;;5068035;28;20150;-62
2022/09/11 02:39:18;;;;;;;8.85;5.55;;;10.40;99.90;;;;;;5070183;28;20044;-69
2022/09/11 02:42:12;;;;;;;7.13;4.68;;;10.40;99.90;;;;;;5081386;28;20048;-65
2022/09/11 02:44:54;;;;;;;7.78;4.45;;;10.40;99.90;;;;;;5066981;28;20856;-64
2022/09/11 02:47:43;;;;;;;8.15;5.05;;;10.40;99.90;;;;;;5062835;28;20083;-69
2022/09/11 02:50:39;;;;;;;6.03;4.68;;;10.40;99.90;;;;;;5067036;28;20397;-67
2022/09/11 02:53:13;;;;;;;7.05;4.20;;;10.40;99.90;;;;;;5065955;28;20093;-64
2022/09/11 02:55:45;;;;;;;5.65;4.38;;;10.40;99.90;;;;;;5067456;28;20786;-63
2022/09/11 02:58:49;;;;;;;4.25;3.88;;;10.40;99.90;;;;;;5086249;28;20066;-66
2022/09/11 03:01:16;;;;;;;7.53;5.20;;;10.40;99.90;;;;;;5065357;28;20035;-66
2022/09/11 03:03:45;;;;;;;4.75;4.10;;;10.40;99.90;;;;;;5067861;28;20055;-68
2022/09/11 03:06:19;;;;;;;6.10;4.72;;;10.40;99.90;;;;;;5068380;28;20096;-63
2022/09/11 03:08:46;;;;;;;6.88;4.72;;;10.30;99.90;;;;;;5088634;28;20043;-66
2022/09/11 03:11:14;;;;;;;4.47;3.85;;;10.30;99.90;;;;;;5087537;28;20040;-65
2022/09/11 03:13:44;;;;;;;6.05;4.82;;;10.30;99.90;;;;;;5072406;28;20433;-68
2022/09/11 03:16:13;;;;;;;6.28;5.25;;;10.30;99.90;;;;;;5065197;28;20090;-68
2022/09/11 03:18:40;;;;;;;6.03;3.63;;;10.20;99.90;;;;;;5089726;28;20048;-64
2022/09/11 03:21:10;;;;;;;4.75;4.35;;;10.20;99.90;;;;;;5087169;28;20061;-63
2022/09/11 03:23:37;;;;;;;9.18;4.78;;;10.10;99.90;;;;;;5084161;28;20059;-64
2022/09/11 03:26:04;;;;;;;6.65;4.68;;;10.10;99.90;;;;;;5084454;28;20051;-64
2022/09/11 03:28:31;;;;;;;6.10;4.25;;;10.00;99.90;;;;;;5068712;28;20052;-63
2022/09/11 03:30:58;;;;;;;7.55;4.95;;;10.00;99.90;;;;;;5068505;28;20144;-62
2022/09/11 03:33:26;;;;;;;8.77;6.20;;;10.00;99.90;;;;;;5081161;28;20174;-65
2022/09/11 03:35:53;;;;;;;4.32;3.83;;;10.00;99.90;;;;;;5065160;28;20032;-64
2022/09/11 03:38:20;;;;;;;7.25;4.50;;;10.00;99.90;;;;;;5068262;28;20051;-63
2022/09/11 03:40:47;;;;;;;6.28;4.20;;;10.00;99.90;;;;;;5066979;28;20062;-68
2022/09/11 03:43:15;;;;;;;5.10;3.83;;;10.00;99.90;;;;;;5079287;28;20101;-67
2022/09/11 03:45:43;;;;;;;4.95;3.55;;;10.00;99.90;;;;;;5064482;28;20561;-63
2022/09/11 03:48:12;;;;;;;4.65;4.25;;;10.00;99.90;;;;;;5066344;28;20044;-64
2022/09/11 03:50:40;;;;;;;4.63;4.13;;;10.00;99.90;;;;;;5082774;28;20062;-62
2022/09/11 03:53:08;;;;;;;7.72;3.53;;;10.00;99.90;;;;;;5086379;28;20058;-63
2022/09/11 03:55:36;;;;;;;4.72;3.70;;;9.90;99.90;;;;;;5082405;28;20765;-65
2022/09/11 03:58:03;;;;;;;3.80;3.40;;;9.90;99.90;;;;;;5082918;28;20044;-63
2022/09/11 04:00:31;;;;;;;5.93;4.05;;;9.90;99.90;;;;;;5067281;28;20044;-62
2022/09/11 04:02:59;;;;;;;9.55;3.80;;;9.90;99.90;;;;;;5080719;28;20089;-64
2022/09/11 04:05:41;;;;;;;4.32;3.80;;;9.80;99.90;;;;;;5082802;28;20060;-65
2022/09/11 04:08:12;;;;;;;7.00;4.65;;;9.80;99.90;;;;;;5066277;28;20040;-63
2022/09/11 04:10:42;;;;;;;7.55;5.07;;;9.80;99.90;;;;;;5068753;28;20155;-62
2022/09/11 04:13:09;;;;;;;5.32;4.43;;;9.80;99.90;;;;;;5061673;28;20078;-63
2022/09/11 04:15:37;;;;;;;8.00;4.43;;;9.80;99.90;;;;;;5078624;28;20049;-65
2022/09/11 04:18:07;;;;;;;5.38;4.18;;;9.80;99.90;;;;;;5085743;28;20131;-63
2022/09/11 04:20:38;;;;;;;5.78;4.35;;;9.80;99.90;;;;;;5066011;28;20044;-64
2022/09/11 04:23:06;;;;;;;6.00;4.65;;;9.80;99.90;;;;;;5069416;28;20656;-65
2022/09/11 04:25:33;;;;;;;4.18;3.70;;;9.80;99.90;;;;;;5063252;28;20055;-64
2022/09/11 04:28:02;;;;;;;6.68;4.57;;;9.80;99.90;;;;;;5066219;28;20094;-66
2022/09/11 04:30:28;;;;;;;5.95;4.78;;;9.80;99.90;;;;;;5065805;28;20050;-63
2022/09/11 04:32:55;;;;;;;6.45;3.70;;;9.80;99.90;;;;;;5082194;28;20044;-63
2022/09/11 04:35:23;;;;;;;7.30;4.07;;;9.80;99.90;;;;;;5063583;28;20047;-63
2022/09/11 04:37:54;;;;;;;5.78;4.05;;;9.90;99.90;;;;;;5062856;28;20051;-63
2022/09/11 04:40:21;;;;;;;5.78;4.00;;;9.90;99.90;;;;;;5075722;28;20070;-65
2022/09/11 04:42:48;;;;;;;6.38;3.70;;;9.90;99.90;;;;;;5076395;28;20064;-63
2022/09/11 04:45:15;;;;;;;7.03;4.32;;;9.90;99.90;;;;;;5061834;28;20044;-69
2022/09/11 04:47:43;;;;;;;5.88;4.43;;;9.90;99.90;;;;;;5080708;28;20036;-64
2022/09/11 04:50:11;;;;;;;7.47;3.75;;;9.90;99.90;;;;;;5063603;28;20044;-66
2022/09/11 04:52:40;;;;;;;7.53;4.50;;;10.00;99.90;;;;;;5076801;28;20151;-63
2022/09/11 04:55:08;;;;;;;4.88;4.38;;;10.00;99.90;;;;;;5063989;28;20039;-62
2022/09/11 04:57:35;;;;;;;6.25;5.60;;;10.10;99.90;;;;;;5078614;28;20131;-64
2022/09/11 05:00:04;;;;;;;5.30;3.85;;;10.10;99.90;;;;;;5064890;28;20056;-63
2022/09/11 05:02:32;;;;;;;6.85;4.03;;;10.10;99.90;;;;;;5081205;28;20051;-63
2022/09/11 05:04:59;;;;;;;7.85;4.68;;;10.20;99.90;;;;;;5062430;28;20075;-63
2022/09/11 05:07:28;;;;;;;11.50;4.72;;;10.20;99.90;;;;;;5064692;28;20922;-65
2022/09/11 05:09:55;;;;;;;6.80;4.57;;;10.30;99.90;;;;;;5066063;28;20097;-64
2022/09/11 05:12:22;;;;;;;5.20;4.68;;;10.30;99.90;;;;;;5067766;28;20335;-63
2022/09/11 05:14:50;;;;;;;5.18;4.32;;;10.30;99.90;;;;;;5082401;28;20497;-63
2022/09/11 05:17:16;;;;;;;9.50;4.47;;;10.30;99.90;;;;;;5077176;28;20880;-64
2022/09/11 05:19:43;;;;;;;6.47;3.53;;;10.30;99.90;;;;;;5083434;28;20048;-63
2022/09/11 05:22:10;;;;;;;6.13;5.00;;;10.30;99.90;;;;;;5081009;28;20097;-62
2022/09/11 05:24:42;;;;;;;5.35;4.60;;;10.40;99.90;;;;;;5068724;28;20041;-65
2022/09/11 05:27:10;;;;;;;4.47;4.07;;;10.40;99.90;;;;;;5076880;28;20154;-66
2022/09/11 05:29:38;;;;;;;4.50;4.10;;;10.40;99.90;;;;;;5063502;28;20152;-63
2022/09/11 05:32:09;;;;;;;6.50;3.47;;;10.50;99.90;;;;;;5066865;28;20043;-64
2022/09/11 05:34:36;;;;;;;6.75;6.05;;;10.50;99.90;;;;;;5064647;28;20044;-64
2022/09/11 05:37:06;;;;;;;7.95;4.07;;;10.70;99.90;;;;;;5065521;28;20122;-63
2022/09/11 05:39:38;;;;;;;9.40;4.85;;;10.70;99.90;;;;;;5064791;28;20046;-63
2022/09/11 05:42:07;;;;;;;5.72;4.57;;;10.80;99.90;;;;;;5063915;28;20144;-64
2022/09/11 05:44:37;;;;;;;4.95;4.43;;;10.90;99.90;;;;;;5063756;28;20044;-62
2022/09/11 05:47:05;;;;;;;4.32;3.88;;;10.90;99.90;;;;;;5062840;28;20067;-63
2022/09/11 05:49:31;;;;;;;6.35;4.30;;;11.00;99.90;;;;;;5063833;28;20044;-66
2022/09/11 05:52:00;;;;;;;7.35;4.90;;;11.10;99.90;;;;;;5065187;28;20135;-63
2022/09/11 05:54:29;;;;;;;8.40;3.92;;;11.10;99.90;;;;;;5065371;28;20135;-65
2022/09/11 05:56:57;;;;;;;7.00;3.67;;;11.10;99.90;;;;;;5063797;28;20044;-65
2022/09/11 05:59:26;;;;;;;4.43;3.65;;;11.20;99.90;;;;;;5075016;28;20040;-63
2022/09/11 06:01:53;;;;;;;6.15;3.80;;;11.20;99.90;;;;;;5064246;28;20039;-64
2022/09/11 06:04:32;;;;;;;6.30;3.40;;;11.20;99.90;;;;;;5085526;28;20044;-63
2022/09/11 06:07:00;;;;;;;5.10;3.65;;;11.20;99.90;;;;;;5065919;28;20048;-63
2022/09/11 06:09:28;;;;;;;7.63;3.78;;;11.20;99.90;;;;;;5079366;28;20093;-65
2022/09/11 06:11:55;;;;;;;4.93;3.45;;;11.30;99.90;;;;;;5063515;28;20048;-65
2022/09/11 06:14:22;;;;;;;8.18;3.28;;;11.30;99.90;;;;;;5054543;28;20052;-64
2022/09/11 06:16:50;;;;;;;7.03;4.03;;;11.30;99.90;;;;;;5065411;28;20678;-62
2022/09/11 06:19:17;;;;;;;5.28;3.28;;;11.30;99.90;;;;;;5071658;28;20147;-64
2022/09/11 06:21:45;;;;;;;6.22;3.85;;;11.30;99.90;;;;;;5086490;28;20139;-62
2022/09/11 06:24:45;;;;;;;5.82;3.75;;;11.30;99.90;;;;;;5070684;28;20048;-64
2022/09/11 06:27:14;;;;;;;9.00;3.38;;;11.30;99.90;;;;;;5062835;28;20066;-64
2022/09/11 06:29:43;;;;;;;5.55;4.63;;;11.40;99.90;;;;;;5065453;28;20046;-65
2022/09/11 06:32:11;;;;;;;5.65;4.28;;;11.50;99.90;;;;;;5078291;28;20402;-63
2022/09/11 06:34:38;;;;;;;6.13;3.83;;;11.50;99.90;;;;;;5087321;28;20048;-63
2022/09/11 06:37:09;;;;;;;5.38;3.85;;;11.60;99.90;;;;;;5083984;28;20136;-63
2022/09/11 06:39:36;;;;;;;6.30;3.63;;;11.70;99.90;;;;;;5075033;28;20462;-65
2022/09/11 06:42:03;;;;;;;4.18;3.78;;;11.80;99.90;;;;;;5082340;28;20142;-63
2022/09/11 06:44:34;;;;;;;7.03;4.13;;;11.90;99.90;;;;;;5084273;28;20044;-65
2022/09/11 06:47:02;;;;;;;9.15;4.55;;;12.10;99.90;;;;;;5083927;28;20419;-70
2022/09/11 06:49:30;;;;;;;8.68;3.58;;;12.10;99.90;;;;;;5083058;28;20048;-64
2022/09/11 06:52:16;;;;;;;5.43;2.92;;;12.30;99.90;;;;;;5084820;28;20051;-67
2022/09/11 06:54:52;;;;;;;3.53;3.17;;;12.40;99.90;;;;;;5101342;28;20128;-63
2022/09/11 06:57:19;;;;;;;6.35;3.55;;;12.40;99.90;;;;;;5098197;28;20040;-63
2022/09/11 06:59:46;;;;;;;12.75;5.35;;;12.60;99.90;;;;;;5083535;28;20538;-63
2022/09/11 07:02:14;;;;;;;5.72;3.33;;;12.70;99.90;;;;;;5083506;28;20131;-63
2022/09/11 07:04:43;;;;;;;5.15;3.28;;;12.80;99.90;;;;;;5084150;28;20047;-62
2022/09/11 07:07:10;;;;;;;3.80;2.75;;;12.80;99.90;;;;;;5079737;28;20074;-64
2022/09/11 07:09:37;;;;;;;6.05;3.47;;;12.90;99.90;;;;;;5082678;28;20113;-64
2022/09/11 07:12:04;;;;;;;5.75;3.22;;;13.10;99.90;;;;;;5083184;28;20050;-65
2022/09/11 07:14:32;;;;;;;7.43;2.88;;;13.20;99.90;;;;;;5082274;28;20048;-67
2022/09/11 07:17:09;;;;;;;4.90;3.05;;;13.30;99.90;;;;;;5081219;28;20051;-64
2022/09/11 07:19:37;;;;;;;8.93;2.90;;;13.40;99.90;;;;;;5081866;28;20040;-69
2022/09/11 07:22:04;;;;;;;9.68;3.67;;;13.50;99.90;;;;;;5082563;28;20085;-65
2022/09/11 07:24:32;;;;;;;2.42;2.20;;;13.50;99.90;;;;;;5084025;28;20055;-63
2022/09/11 07:26:59;;;;;;;3.55;2.80;;;13.70;99.90;;;;;;5089881;28;20442;-68
2022/09/11 07:29:31;;;;;;;8.57;3.50;;;13.80;99.90;;;;;;5080989;28;20048;-64
2022/09/11 07:31:58;;;;;;;4.38;2.22;;;13.90;99.90;;;;;;5081404;28;20040;-64
2022/09/11 07:34:26;;;;;;;5.85;2.25;;;14.00;99.90;;;;;;5082521;28;20032;-64
2022/09/11 07:36:54;;;;;;;2.88;2.25;;;14.10;99.90;;;;;;5081251;28;20774;-65
2022/09/11 07:39:24;;;;;;;3.22;2.35;;;14.10;99.90;;;;;;5074153;28;20429;-64
2022/09/11 07:42:13;;;;;;;2.85;2.33;;;14.20;99.90;;;;;;5084025;28;20115;-64
2022/09/11 07:44:42;;;;;;;6.57;2.38;;;14.40;99.90;;;;;;5067509;28;20036;-65
2022/09/11 07:47:10;;;;;;;2.53;2.30;;;14.50;99.90;;;;;;5066498;28;20075;-62
2022/09/11 07:49:41;;;;;;;6.80;2.15;;;14.60;99.90;;;;;;5064003;28;20040;-64
2022/09/11 07:52:08;;;;;;;4.40;2.60;;;14.60;99.90;;;;;;5069628;28;20426;-65
2022/09/11 07:54:46;;;;;;;3.35;2.10;;;14.70;99.90;;;;;;5076284;28;20055;-63
2022/09/11 07:57:14;;;;;;;8.50;4.68;;;14.80;99.90;;;;;;5062338;28;20500;-65
2022/09/11 07:59:41;;;;;;;3.65;2.25;;;14.80;99.90;;;;;;5083663;28;20051;-63
2022/09/11 08:02:10;;;;;;;4.82;2.80;;;14.90;99.90;;;;;;5080906;28;20562;-66
2022/09/11 08:04:37;;;;;;;6.80;2.30;;;15.00;99.90;;;;;;5067201;28;20048;-66
2022/09/11 08:07:05;;;;;;;3.55;2.22;;;15.00;99.90;;;;;;5066221;28;20055;-64
2022/09/11 08:09:33;;;;;;;4.07;2.25;;;15.00;99.90;;;;;;5066009;28;20044;-63
2022/09/11 08:12:03;;;;;;;4.53;2.85;;;15.00;99.90;;;;;;5079557;28;20057;-65
2022/09/11 08:14:31;;;;;;;5.18;2.20;;;15.00;99.90;;;;;;5068240;28;20461;-65
2022/09/11 08:17:07;;;;;;;4.78;2.38;;;14.90;99.90;;;;;;5063822;28;20048;-64
2022/09/11 08:19:36;;;;;;;6.00;2.85;;;14.90;99.90;;;;;;5081161;28;20043;-67
2022/09/11 08:22:03;;;;;;;4.47;2.47;;;14.90;99.90;;;;;;5084357;28;20036;-69
2022/09/11 08:24:34;;;;;;;9.02;2.30;;;14.90;99.90;;;;;;5067555;28;20155;-63
2022/09/11 08:27:04;;;;;;;2.95;1.98;;;14.90;99.90;;;;;;5064949;28;20148;-63
2022/09/11 08:29:34;;;;;;;2.95;1.98;;;15.00;99.90;;;;;;5065628;28;20109;-63
2022/09/11 08:32:01;;;;;;;3.50;2.05;;;15.00;99.90;;;;;;5065176;28;20056;-63
2022/09/11 08:34:31;;;;;;;3.65;2.35;;;15.10;99.90;;;;;;5065777;28;20054;-64
2022/09/11 08:36:58;;;;;;;3.40;2.58;;;15.10;99.90;;;;;;5061718;28;20072;-64
2022/09/11 08:39:27;;;;;;;6.18;2.35;;;15.20;99.90;;;;;;5066820;28;20052;-63
2022/09/11 08:42:04;;;;;;;3.67;2.15;;;15.20;99.90;;;;;;5064038;28;20039;-66
2022/09/11 08:44:47;;;;;;;3.05;2.30;;;15.30;99.90;;;;;;5049246;28;20074;-66
2022/09/11 08:47:26;;;;;;;2.60;1.80;;;15.30;99.90;;;;;;5062977;28;20873;-64
2022/09/11 08:50:02;;;;;;;2.08;1.77;;;15.30;99.90;;;;;;5082859;28;20044;-65
2022/09/11 08:52:31;;;;;;;3.85;1.92;;;15.50;99.90;;;;;;5078814;28;20060;-64
2022/09/11 08:54:59;;;;;;;4.85;2.20;;;15.60;99.90;;;;;;5077790;28;20105;-66
2022/09/11 08:57:59;;;;;;;3.15;2.38;;;15.70;99.90;;;;;;5080941;28;20233;-69
2022/09/11 09:00:39;;;;;;;4.15;2.30;;;15.80;99.90;;;;;;5081270;28;20036;-63
2022/09/11 09:03:32;;;;;;;7.97;2.08;;;16.00;99.90;;;;;;5064771;28;20051;-64
2022/09/11 09:06:27;;;;;;;7.07;2.22;;;16.00;99.90;;;;;;5058033;28;20040;-63
2022/09/11 09:09:17;;;;;;;4.68;2.15;;;16.10;99.90;;;;;;5082091;28;20483;-64
2022/09/11 09:11:54;;;;;;;4.88;2.92;;;16.00;99.90;;;;;;5063157;28;20040;-65
2022/09/11 09:14:35;;;;;;;6.68;2.85;;;16.00;99.90;;;;;;5082314;28;20055;-64
2022/09/11 09:17:15;;;;;;;2.20;2.00;;;15.90;99.90;;;;;;5065618;28;20058;-68
2022/09/11 09:20:02;;;;;;;;;;;15.90;99.90;;;;;;5080832;28;20116;-65
2022/09/11 09:22:50;;;;;;;13.85;2.60;;;15.80;99.90;;;;;;5064003;28;19939;-65
2022/09/11 09:25:24;;;;;;;6.18;2.60;;;15.70;99.90;;;;;;5065077;28;20040;-64
2022/09/11 09:28:10;;;;;;;8.75;2.58;;;15.60;99.90;;;;;;5080954;28;20105;-67
2022/09/11 09:30:58;;;;;;;8.48;2.63;;;15.60;99.90;;;;;;5079848;28;20378;-65
2022/09/11 09:33:39;;;;;;;5.60;2.13;;;15.60;99.90;;;;;;5062905;28;20050;-65
2022/09/11 09:36:19;;;;;;;13.75;3.05;;;15.60;99.90;;;;;;5081298;28;20036;-65
2022/09/11 09:38:47;;;;;;;4.78;2.20;;;15.60;99.90;;;;;;5066040;28;20064;-63
2022/09/11 09:41:53;;;;;;;5.25;2.22;;;15.60;99.90;;;;;;5064856;28;20703;-66
2022/09/11 09:44:22;;;;;;;4.35;2.30;;;15.50;99.90;;;;;;5061753;28;20043;-65
2022/09/11 09:46:52;;;;;;;5.57;2.70;;;15.50;99.90;;;;;;5084777;28;20046;-65
2022/09/11 09:49:31;;;;;;;4.93;2.75;;;15.50;99.90;;;;;;5074074;28;20096;-66
2022/09/11 09:52:04;;;;;;;3.03;2.70;;;15.60;99.90;;;;;;5084791;28;20039;-62
2022/09/11 09:54:35;;;;;;;7.40;2.80;;;15.70;99.90;;;;;;5087498;28;20338;-65
2022/09/11 09:57:09;;;;;;;3.72;2.70;;;15.90;99.90;;;;;;5086050;28;20162;-68
2022/09/11 09:59:49;;;;;;;4.47;3.70;;;16.00;99.90;;;;;;5085500;28;20424;-63
2022/09/11 10:02:52;;;;;;;;;;;16.20;99.90;;;;;;5086405;28;20040;-66
2022/09/11 10:05:31;;;;;;;3.15;1.92;;;16.30;99.90;;;;;;5052549;28;20376;-65
2022/09/11 10:08:06;;;;;;;5.95;1.98;;;16.40;99.90;;;;;;5086292;28;20154;-64
2022/09/11 10:10:38;;;;;;;4.28;2.22;;;16.60;99.90;;;;;;5086587;28;20048;-64
2022/09/11 10:13:21;;;;;;;2.65;1.83;;;16.70;99.90;;;;;;5085896;28;20051;-65
2022/09/11 10:15:49;;;;;;;9.18;2.38;;;16.90;99.90;;;;;;5084487;28;20046;-64
2022/09/11 10:18:29;;;;;;;4.53;1.48;;;17.00;99.90;;;;;;5086830;28;20060;-67
2022/09/11 10:21:23;;;;;;;4.82;2.10;;;17.00;99.90;;;;;;5085279;28;20056;-64
2022/09/11 10:24:21;;;;;;;2.08;1.60;;;17.00;99.90;;;;;;5073761;28;20046;-64
2022/09/11 10:26:52;;;;;;;4.25;1.50;;;17.00;99.90;;;;;;5086376;28;20043;-66
2022/09/11 10:29:23;;;;;;;6.25;1.73;;;17.00;99.90;;;;;;5083932;28;20059;-63
2022/09/11 10:31:55;;;;;;;4.18;2.35;;;17.00;99.90;;;;;;5085778;28;20066;-63
2022/09/11 10:34:26;;;;;;;4.47;2.13;;;16.90;99.90;;;;;;5086256;28;20075;-68
2022/09/11 10:36:53;;;;;;;;;;;16.90;99.90;;;;;;5087073;28;20523;-65
2022/09/11 10:39:23;;;;;;;2.97;2.72;;;16.90;99.90;;;;;;5083654;28;19924;-70
2022/09/11 10:41:53;;;;;;;4.87;2.83;;;17.00;99.90;;;;;;5086808;28;20131;-64
2022/09/11 10:44:21;;;;;;;;;;;17.00;99.90;;;;;;5086216;28;20120;-67
2022/09/11 10:47:22;;;;;;;6.05;1.85;;;16.90;99.90;;;;;;5082877;28;19938;-65
2022/09/11 10:49:48;;;;;;;6.55;3.67;;;17.00;99.90;;;;;;5076532;28;20036;-65
2022/09/11 10:52:20;;;;;;;9.90;2.45;;;17.10;99.90;;;;;;5082961;28;20048;-67
2022/09/11 10:55:08;;;;;;;3.58;2.40;;;17.10;99.90;;;;;;5085563;28;20059;-66
2022/09/11 10:57:54;;;;;;;5.82;2.35;;;17.10;99.90;;;;;;5074793;28;20048;-66
2022/09/11 11:00:28;;;;;;;3.60;2.50;;;17.20;99.90;;;;;;5082976;28;20397;-67
2022/09/11 11:03:05;;;;;;;4.10;2.05;;;17.30;99.90;;;;;;5083625;28;20040;-64
2022/09/11 11:05:49;;;;;;;3.03;2.15;;;17.30;99.90;;;;;;5081243;28;20046;-65
2022/09/11 11:08:45;;;;;;;4.90;2.45;;;17.30;99.90;;;;;;5083212;28;20135;-65
2022/09/11 11:11:31;;;;;;;5.55;2.53;;;17.30;99.90;;;;;;5059408;28;20043;-67
2022/09/11 11:14:27;;;;;;;1.80;1.70;;;17.30;99.90;;;;;;5081095;28;20130;-66
2022/09/11 11:17:30;;;;;;;2.03;1.77;;;17.30;99.90;;;;;;5079855;28;20051;-68
2022/09/11 11:19:57;;;;;;;2.42;2.05;;;17.30;99.90;;;;;;4998819;28;20491;-65
2022/09/11 11:22:44;;;;;;;7.25;2.20;;;17.30;99.90;;;;;;4997604;28;20528;-69
2022/09/11 11:25:35;;;;;;;5.65;2.17;;;17.30;99.90;;;;;;5080266;28;20044;-67
2022/09/11 11:28:13;;;;;;;2.00;1.55;;;17.30;99.90;;;;;;5079171;28;20093;-65
2022/09/11 11:31:05;;;;;;;3.67;1.65;;;17.30;99.90;;;;;;5084279;28;20062;-65
2022/09/11 11:33:35;;;;;;;1.98;1.67;;;17.30;99.90;;;;;;5079682;28;20151;-65
2022/09/11 11:36:29;;;;;;;2.10;1.23;;;17.40;99.90;;;;;;5082624;28;20135;-66
2022/09/11 11:39:01;;;;;;;4.40;1.73;;;17.50;99.90;;;;;;5084100;28;20058;-67
2022/09/11 11:41:57;;;;;;;4.28;1.92;;;17.40;99.90;;;;;;5081377;28;20055;-67
2022/09/11 11:44:38;;;;;;;3.22;2.05;;;17.60;99.90;;;;;;5083267;28;20367;-66
2022/09/11 11:47:09;;;;;;;2.65;2.00;;;17.60;99.90;;;;;;5080249;28;20602;-65
2022/09/11 11:49:42;;;;;;;5.68;1.80;;;17.60;99.90;;;;;;5083180;28;20044;-69
2022/09/11 11:52:16;;;;;;;5.43;2.15;;;17.60;99.90;;;;;;5083863;28;20127;-64
2022/09/11 11:55:17;;;;;;;1.88;1.33;;;17.70;99.90;;;;;;5082831;28;20054;-64
2022/09/11 11:57:58;;;;;;;3.45;1.98;;;17.70;99.90;;;;;;5077101;28;20074;-67
2022/09/11 12:00:27;;;;;;;2.83;1.60;;;17.60;99.90;;;;;;5081505;28;20040;-64
2022/09/11 12:03:00;;;;;;;3.00;1.60;;;17.50;99.90;;;;;;5082058;28;20468;-68
2022/09/11 12:05:31;;;;;;;11.35;2.20;;;17.40;99.90;;;;;;5080219;28;20134;-67
2022/09/11 12:07:58;;;;;;;4.78;1.70;;;17.50;99.90;;;;;;5069100;28;20058;-66
2022/09/11 12:10:33;;;;;;;3.42;2.00;;;17.50;99.90;;;;;;5066081;28;20052;-65
2022/09/11 12:13:05;;;;;;;2.95;2.35;;;17.40;99.90;;;;;;5068755;28;20134;-72
2022/09/11 12:15:35;;;;;;;2.38;1.80;;;17.40;99.90;;;;;;5070374;28;20068;-68
2022/09/11 12:18:02;;;;;;;4.22;2.28;;;17.40;99.90;;;;;;5082228;28;20110;-65
2022/09/11 12:20:35;;;;;;;6.13;2.47;;;17.30;99.90;;;;;;5070919;28;20054;-65
2022/09/11 12:23:04;;;;;;;5.13;1.83;;;17.30;99.90;;;;;;5072727;28;20054;-68
2022/09/11 12:25:31;;;;;;;2.53;2.25;;;17.30;99.90;;;;;;5065385;28;20519;-71
2022/09/11 12:28:28;;;;;;;5.50;2.17;;;17.40;99.90;;;;;;5070134;28;20051;-64
2022/09/11 12:30:57;;;;;;;4.13;2.97;;;17.50;99.90;;;;;;5050246;28;20114;-66
2022/09/11 12:33:42;;;;;;;3.78;1.83;;;17.50;99.90;;;;;;5060619;28;20397;-64
2022/09/11 12:36:41;;;;;;;3.42;1.40;;;17.60;99.90;;;;;;5081597;28;20032;-65
2022/09/11 12:39:23;;;;;;;3.28;2.88;;;17.70;99.90;;;;;;5084173;28;20074;-69
2022/09/11 12:41:51;;;;;;;1.73;1.63;;;17.60;99.90;;;;;;5082687;28;20047;-63
2022/09/11 12:44:51;;;;;;;3.17;2.85;;;17.60;99.90;;;;;;5084160;28;20067;-66
2022/09/11 12:47:38;;;;;;;2.30;1.52;;;17.60;99.90;;;;;;5082251;28;20504;-67
2022/09/11 12:50:13;;;;;;;5.00;1.67;;;17.60;99.90;;;;;;5081836;28;20052;-71
2022/09/11 12:52:53;;;;;;;2.70;1.40;;;17.70;99.90;;;;;;5083371;28;20397;-67
2022/09/11 12:55:26;;;;;;;;;;;17.70;99.90;;;;;;5079281;28;20175;-64
2022/09/11 12:57:53;;;;;;;4.07;1.92;;;17.60;99.90;;;;;;5082216;28;19922;-65
2022/09/11 13:00:34;;;;;;;3.03;2.17;;;17.60;99.90;;;;;;5082747;28;20802;-67
2022/09/11 13:03:03;;;;;;;2.78;2.10;;;17.60;99.90;;;;;;5078299;28;20062;-67
2022/09/11 13:05:36;;;;;;;5.90;1.45;;;17.70;99.90;;;;;;5082589;28;20267;-75
2022/09/11 13:08:15;;;;;;;1.80;1.30;;;17.70;99.90;;;;;;5082686;28;20052;-65
2022/09/11 13:10:42;;;;;;;2.28;1.60;;;17.60;99.90;;;;;;5084210;28;20048;-67
2022/09/11 13:13:42;;;;;;;3.35;1.40;;;17.70;99.90;;;;;;5062597;28;20492;-68
2022/09/11 13:16:27;;;;;;;2.13;1.77;;;17.70;99.90;;;;;;5084468;28;20151;-65
2022/09/11 13:19:16;;;;;;;3.88;1.52;;;17.70;99.90;;;;;;5084806;28;20479;-67
2022/09/11 13:21:48;;;;;;;3.22;1.45;;;17.70;99.90;;;;;;5083001;28;20566;-65
2022/09/11 13:24:31;;;;;;;1.92;1.65;;;17.70;99.90;;;;;;5084317;28;20128;-73